Time;durP1;ratioP1;P1;durP2;ratioP2;P2;SDS_P1;SDS_P2;PMS_P1;PMS_P2;Temp;Humidity;BMP_temperature;BMP_pressure;BME280_temperature;BME280_humidity;BME280_pressure;Samples;Min_cycle;Max_cycle;Signal;HPM_P1;HPM_P2
2023/10/24 00:02:32;;;;;;;18.25;5.32;;;;;;;;;;6339150;28;20048;-64
2023/10/24 00:05:34;;;;;;;11.40;4.60;;;;;;;;;;6338137;28;20032;-65
2023/10/24 00:08:36;;;;;;;12.65;5.75;;;;;;;;;;6338165;28;20073;-65
2023/10/24 00:11:38;;;;;;;14.95;5.22;;;;;;;;;;6324978;28;20054;-64
2023/10/24 00:14:40;;;;;;;11.98;4.18;;;;;;;;;;6338922;28;20036;-66
2023/10/24 00:17:43;;;;;;;11.80;4.43;;;;;;;;;;6339240;27;20039;-65
2023/10/24 00:20:45;;;;;;;16.95;4.22;;;;;;;;;;6337640;28;20048;-65
2023/10/24 00:23:47;;;;;;;17.00;4.90;;;;;;;;;;6338628;28;20044;-67
2023/10/24 00:26:49;;;;;;;10.93;4.85;;;;;;;;;;6338427;28;20047;-64
2023/10/24 00:29:51;;;;;;;11.35;4.85;;;;;;;;;;6337830;28;20036;-65
2023/10/24 00:32:53;;;;;;;9.88;4.15;;;;;;;;;;6325525;28;20089;-66
2023/10/24 00:35:55;;;;;;;13.13;4.40;;;;;;;;;;6337539;28;20040;-65
2023/10/24 00:38:57;;;;;;;17.83;5.15;;;;;;;;;;6338119;28;20054;-65
2023/10/24 00:41:59;;;;;;;12.18;5.63;;;;;;;;;;6338199;28;20530;-67
2023/10/24 00:45:05;;;;;;;14.98;7.45;;;;;;;;;;6324420;28;20525;-65
2023/10/24 00:48:07;;;;;;;13.90;4.22;;;;;;;;;;6321851;28;20050;-66
2023/10/24 00:51:09;;;;;;;12.82;4.93;;;;;;;;;;6337623;28;20047;-65
2023/10/24 00:54:11;;;;;;;10.63;4.35;;;;;;;;;;6328910;28;20130;-68
2023/10/24 00:57:13;;;;;;;9.48;4.43;;;;;;;;;;6337396;28;20051;-65
2023/10/24 01:00:15;;;;;;;10.10;4.40;;;;;;;;;;6337439;28;20043;-65
2023/10/24 01:03:17;;;;;;;14.70;5.07;;;;;;;;;;6323851;28;20514;-66
2023/10/24 01:06:19;;;;;;;13.65;5.03;;;;;;;;;;6319184;28;20818;-65
2023/10/24 01:09:21;;;;;;;16.92;4.80;;;;;;;;;;6338036;28;20147;-65
2023/10/24 01:12:24;;;;;;;15.05;4.78;;;;;;;;;;6336990;28;20083;-65
2023/10/24 01:15:25;;;;;;;13.93;5.13;;;;;;;;;;6336633;28;20390;-65
2023/10/24 01:18:27;;;;;;;17.38;6.03;;;;;;;;;;6322203;28;20043;-65
2023/10/24 01:21:29;;;;;;;15.63;5.25;;;;;;;;;;6336774;28;20160;-64
2023/10/24 01:24:32;;;;;;;9.77;4.30;;;;;;;;;;6336359;28;20784;-65
2023/10/24 01:27:35;;;;;;;8.32;4.40;;;;;;;;;;6353064;27;20127;-65
2023/10/24 01:30:38;;;;;;;12.10;5.00;;;;;;;;;;6302040;28;20794;-65
2023/10/24 01:33:40;;;;;;;14.70;4.63;;;;;;;;;;6335840;28;20657;-64
2023/10/24 01:36:42;;;;;;;19.50;5.25;;;;;;;;;;6336471;28;20817;-66
2023/10/24 01:39:44;;;;;;;10.95;3.80;;;;;;;;;;6325157;28;20047;-66
2023/10/24 01:42:46;;;;;;;11.27;3.72;;;;;;;;;;6312683;28;20044;-66
2023/10/24 01:45:49;;;;;;;13.48;4.95;;;;;;;;;;6327339;28;20785;-65
2023/10/24 01:48:52;;;;;;;10.13;4.53;;;;;;;;;;6323898;28;20040;-66
2023/10/24 01:51:54;;;;;;;8.80;4.55;;;;;;;;;;6321389;28;20047;-65
2023/10/24 01:54:56;;;;;;;9.10;4.82;;;;;;;;;;6335456;28;20067;-66
2023/10/24 01:57:58;;;;;;;9.60;5.10;;;;;;;;;;6318178;28;20050;-67
2023/10/24 02:00:59;;;;;;;11.63;4.63;;;;;;;;;;6324110;28;20593;-64
2023/10/24 02:04:02;;;;;;;10.77;4.53;;;;;;;;;;6334878;28;20040;-64
2023/10/24 02:07:04;;;;;;;12.30;4.05;;;;;;;;;;6327213;28;20177;-65
2023/10/24 02:10:06;;;;;;;10.45;4.38;;;;;;;;;;6335926;28;20142;-66
2023/10/24 02:13:08;;;;;;;14.30;4.53;;;;;;;;;;6317069;28;20526;-64
2023/10/24 02:16:10;;;;;;;11.25;4.20;;;;;;;;;;6303106;28;20635;-68
2023/10/24 02:19:14;;;;;;;13.95;5.35;;;;;;;;;;6335431;28;20048;-66
2023/10/24 02:22:16;;;;;;;8.77;3.75;;;;;;;;;;6333562;28;20739;-66
2023/10/24 02:25:18;;;;;;;11.45;4.75;;;;;;;;;;6334922;28;20051;-65
2023/10/24 02:28:22;;;;;;;11.65;3.97;;;;;;;;;;6296127;28;20043;-65
2023/10/24 02:31:24;;;;;;;9.93;4.63;;;;;;;;;;6334964;28;20047;-64
2023/10/24 02:34:27;;;;;;;11.05;4.28;;;;;;;;;;6335088;28;20483;-65
2023/10/24 02:37:29;;;;;;;13.55;5.43;;;;;;;;;;6335012;28;20542;-64
2023/10/24 02:40:31;;;;;;;11.05;4.93;;;;;;;;;;6321577;28;20104;-65
2023/10/24 02:43:34;;;;;;;11.05;4.45;;;;;;;;;;6334858;28;20608;-66
2023/10/24 02:46:36;;;;;;;16.77;5.25;;;;;;;;;;6319011;28;20036;-65
2023/10/24 02:49:38;;;;;;;10.52;4.82;;;;;;;;;;6340134;27;20046;-65
2023/10/24 02:52:40;;;;;;;13.95;4.85;;;;;;;;;;6321794;28;20067;-64
2023/10/24 02:55:42;;;;;;;12.77;5.28;;;;;;;;;;6340209;28;20047;-64
2023/10/24 02:58:44;;;;;;;15.60;4.63;;;;;;;;;;6333351;28;20078;-65
2023/10/24 03:01:46;;;;;;;12.85;5.63;;;;;;;;;;6339794;28;20048;-64
2023/10/24 03:04:48;;;;;;;9.73;4.50;;;;;;;;;;6324413;28;20039;-64
2023/10/24 03:07:51;;;;;;;18.17;5.32;;;;;;;;;;6340201;28;20108;-65
2023/10/24 03:10:53;;;;;;;10.88;4.35;;;;;;;;;;6339854;28;20127;-64
2023/10/24 03:13:55;;;;;;;15.75;5.28;;;;;;;;;;6340736;28;20051;-62
2023/10/24 03:16:57;;;;;;;15.85;5.30;;;;;;;;;;6340591;28;20514;-64
2023/10/24 03:19:59;;;;;;;16.80;4.75;;;;;;;;;;6326189;27;20216;-64
2023/10/24 03:23:02;;;;;;;18.90;5.85;;;;;;;;;;6328421;28;20100;-64
2023/10/24 03:26:05;;;;;;;11.68;5.15;;;;;;;;;;6330837;28;20122;-63
2023/10/24 03:29:07;;;;;;;16.58;5.43;;;;;;;;;;6343734;27;20066;-64
2023/10/24 03:32:09;;;;;;;18.65;6.97;;;;;;;;;;6339222;28;20578;-65
2023/10/24 03:35:12;;;;;;;9.18;4.18;;;;;;;;;;6339154;28;20066;-65
2023/10/24 03:38:14;;;;;;;19.75;5.55;;;;;;;;;;6339081;28;20051;-65
2023/10/24 03:41:16;;;;;;;10.73;5.03;;;;;;;;;;6317504;28;20058;-65
2023/10/24 03:44:18;;;;;;;10.80;4.28;;;;;;;;;;6338547;28;20043;-66
2023/10/24 03:47:20;;;;;;;14.80;4.93;;;;;;;;;;6339076;27;20056;-65
2023/10/24 03:50:23;;;;;;;14.93;4.70;;;;;;;;;;6338118;28;20055;-65
2023/10/24 03:53:26;;;;;;;21.55;5.32;;;;;;;;;;6325311;28;20044;-64
2023/10/24 03:56:27;;;;;;;17.65;5.13;;;;;;;;;;6338322;28;20039;-65
2023/10/24 03:59:29;;;;;;;14.23;6.65;;;;;;;;;;6320697;28;20130;-65
2023/10/24 04:02:32;;;;;;;16.38;5.80;;;;;;;;;;6334443;28;20157;-65
2023/10/24 04:05:34;;;;;;;18.63;6.30;;;;;;;;;;6335016;28;20044;-64
2023/10/24 04:08:36;;;;;;;12.65;4.70;;;;;;;;;;6338649;28;20047;-65
2023/10/24 04:11:38;;;;;;;16.92;5.35;;;;;;;;;;6337348;28;20167;-64
2023/10/24 04:14:40;;;;;;;18.08;5.50;;;;;;;;;;6332153;28;20047;-64
2023/10/24 04:17:42;;;;;;;14.18;8.43;;;;;;;;;;6337976;28;20047;-65
2023/10/24 04:20:44;;;;;;;35.38;6.57;;;;;;;;;;6337783;28;20043;-65
2023/10/24 04:23:46;;;;;;;23.50;8.85;;;;;;;;;;6326665;28;20892;-63
2023/10/24 04:26:48;;;;;;;20.35;6.63;;;;;;;;;;6338292;28;20144;-64
2023/10/24 04:29:50;;;;;;;14.73;7.28;;;;;;;;;;6337347;28;20524;-64
2023/10/24 04:32:53;;;;;;;18.67;6.25;;;;;;;;;;6337995;28;20146;-64
2023/10/24 04:35:55;;;;;;;15.38;5.05;;;;;;;;;;6337353;28;20035;-64
2023/10/24 04:38:57;;;;;;;21.33;7.00;;;;;;;;;;6331479;28;20051;-65
2023/10/24 04:41:59;;;;;;;16.55;6.70;;;;;;;;;;6333071;28;20590;-65
2023/10/24 04:45:02;;;;;;;17.45;5.22;;;;;;;;;;6305118;28;20507;-66
2023/10/24 04:48:05;;;;;;;14.55;6.45;;;;;;;;;;6320684;28;20135;-65
2023/10/24 04:51:10;;;;;;;17.55;5.28;;;;;;;;;;6331712;27;20466;-65
2023/10/24 04:54:12;;;;;;;14.00;4.75;;;;;;;;;;6332269;28;20053;-66
2023/10/24 04:57:15;;;;;;;21.45;5.68;;;;;;;;;;6336127;27;20073;-65
2023/10/24 05:00:17;;;;;;;17.48;6.72;;;;;;;;;;6336008;28;20063;-65
2023/10/24 05:03:19;;;;;;;19.40;6.28;;;;;;;;;;6333691;28;20522;-64
2023/10/24 05:06:21;;;;;;;22.48;10.45;;;;;;;;;;6335795;28;20085;-65
2023/10/24 05:09:23;;;;;;;15.93;5.22;;;;;;;;;;6336402;28;20044;-65
2023/10/24 05:12:25;;;;;;;23.25;8.27;;;;;;;;;;6323919;28;20583;-65
2023/10/24 05:15:27;;;;;;;18.40;6.88;;;;;;;;;;6334266;28;20040;-63
2023/10/24 05:18:29;;;;;;;19.52;5.78;;;;;;;;;;6326134;28;20059;-62
2023/10/24 05:21:32;;;;;;;15.57;6.68;;;;;;;;;;6334035;28;20067;-63
2023/10/24 05:24:34;;;;;;;16.83;5.50;;;;;;;;;;6337412;27;20039;-63
2023/10/24 05:27:36;;;;;;;16.95;6.72;;;;;;;;;;6306895;28;20043;-63
2023/10/24 05:30:41;;;;;;;19.13;6.95;;;;;;;;;;6321607;28;20576;-63
2023/10/24 05:33:44;;;;;;;14.48;5.57;;;;;;;;;;6324782;27;20534;-63
2023/10/24 05:36:46;;;;;;;12.32;5.68;;;;;;;;;;6305013;28;20036;-62
2023/10/24 05:39:48;;;;;;;13.40;6.22;;;;;;;;;;6325168;28;20048;-63
2023/10/24 05:42:51;;;;;;;19.58;8.27;;;;;;;;;;6317333;28;20691;-63
2023/10/24 05:45:53;;;;;;;13.65;5.57;;;;;;;;;;6334289;27;20589;-64
2023/10/24 05:48:55;;;;;;;13.57;4.75;;;;;;;;;;6337890;27;20043;-61
2023/10/24 05:51:57;;;;;;;11.40;5.68;;;;;;;;;;6334340;27;20039;-62
2023/10/24 05:54:59;;;;;;;9.77;4.10;;;;;;;;;;6340653;27;20047;-62
2023/10/24 05:58:01;;;;;;;14.68;5.32;;;;;;;;;;6332169;27;20049;-62
2023/10/24 06:01:03;;;;;;;10.82;5.25;;;;;;;;;;6342425;27;20070;-62
2023/10/24 06:04:06;;;;;;;18.30;6.70;;;;;;;;;;6338372;27;20059;-63
2023/10/24 06:07:08;;;;;;;14.77;5.05;;;;;;;;;;6332961;27;20118;-62
2023/10/24 06:10:10;;;;;;;18.17;6.10;;;;;;;;;;6337431;27;20104;-62
2023/10/24 06:13:12;;;;;;;9.95;5.10;;;;;;;;;;6333975;28;20538;-63
2023/10/24 06:16:18;;;;;;;11.07;4.43;;;;;;;;;;6336079;28;20043;-61
2023/10/24 06:19:20;;;;;;;16.73;4.97;;;;;;;;;;6330292;28;20139;-62
2023/10/24 06:22:23;;;;;;;21.27;6.55;;;;;;;;;;6334864;28;20070;-61
2023/10/24 06:25:25;;;;;;;20.30;5.65;;;;;;;;;;6334632;28;20051;-61
2023/10/24 06:28:27;;;;;;;15.77;4.38;;;;;;;;;;6332102;28;20568;-61
2023/10/24 06:31:29;;;;;;;18.40;4.03;;;;;;;;;;6317139;28;20044;-61
2023/10/24 06:34:33;;;;;;;19.10;5.45;;;;;;;;;;6335739;28;20055;-62
2023/10/24 06:37:35;;;;;;;16.17;5.28;;;;;;;;;;6329083;28;20039;-61
2023/10/24 06:40:44;;;;;;;19.08;7.82;;;;;;;;;;6321230;28;20059;-62
2023/10/24 06:43:47;;;;;;;17.38;6.95;;;;;;;;;;6310168;28;20044;-62
2023/10/24 06:46:50;;;;;;;24.48;8.68;;;;;;;;;;6318396;28;20035;-63
2023/10/24 06:49:54;;;;;;;21.83;7.80;;;;;;;;;;6325295;28;20062;-63
2023/10/24 06:52:56;;;;;;;24.05;12.07;;;;;;;;;;6304975;28;20055;-63
2023/10/24 06:56:00;;;;;;;25.65;8.63;;;;;;;;;;6333021;28;20036;-63
2023/10/24 06:59:04;;;;;;;25.27;10.77;;;;;;;;;;6334248;28;20039;-63
2023/10/24 07:02:07;;;;;;;25.88;8.98;;;;;;;;;;6333926;28;20135;-63
2023/10/24 07:05:13;;;;;;;23.25;7.57;;;;;;;;;;6333034;28;20048;-63
2023/10/24 07:08:17;;;;;;;22.83;7.75;;;;;;;;;;6316244;28;20055;-63
2023/10/24 07:11:20;;;;;;;20.77;10.52;;;;;;;;;;6333796;28;20559;-63
2023/10/24 07:14:26;;;;;;;25.38;8.13;;;;;;;;;;6319852;28;20523;-63
2023/10/24 07:17:28;;;;;;;22.02;6.07;;;;;;;;;;6292167;28;20715;-63
2023/10/24 07:20:33;;;;;;;22.27;9.40;;;;;;;;;;6333591;28;20449;-63
2023/10/24 07:23:36;;;;;;;16.75;5.68;;;;;;;;;;6314476;28;20052;-64
2023/10/24 07:26:39;;;;;;;20.83;6.30;;;;;;;;;;6333429;28;20044;-64
2023/10/24 07:29:47;;;;;;;21.70;6.10;;;;;;;;;;6334465;28;20036;-63
2023/10/24 07:32:53;;;;;;;22.38;6.65;;;;;;;;;;6334292;28;20142;-64
2023/10/24 07:36:03;;;;;;;16.92;5.80;;;;;;;;;;6311783;28;20086;-63
2023/10/24 07:39:06;;;;;;;16.20;6.18;;;;;;;;;;6339807;28;20128;-64
2023/10/24 07:42:09;;;;;;;20.55;6.30;;;;;;;;;;6342005;27;20051;-63
2023/10/24 07:45:13;;;;;;;18.02;5.75;;;;;;;;;;6325474;28;20048;-63
2023/10/24 07:48:17;;;;;;;14.25;5.63;;;;;;;;;;6338675;28;20043;-62
2023/10/24 07:51:22;;;;;;;18.75;8.38;;;;;;;;;;6329227;28;20556;-63
2023/10/24 07:54:29;;;;;;;19.00;6.20;;;;;;;;;;6323514;28;20115;-63
2023/10/24 07:57:31;;;;;;;19.33;5.78;;;;;;;;;;6325858;28;20043;-63
2023/10/24 08:00:33;;;;;;;16.98;6.78;;;;;;;;;;6320095;28;20040;-63
2023/10/24 08:03:41;;;;;;;16.83;5.75;;;;;;;;;;6321925;28;20047;-63
2023/10/24 08:06:44;;;;;;;17.33;6.22;;;;;;;;;;6321354;28;20048;-63
2023/10/24 08:09:46;;;;;;;20.50;6.63;;;;;;;;;;6337379;28;20043;-64
2023/10/24 08:12:48;;;;;;;21.80;6.88;;;;;;;;;;6333477;28;20159;-62
2023/10/24 08:15:52;;;;;;;24.13;5.90;;;;;;;;;;6337669;28;20036;-62
2023/10/24 08:18:54;;;;;;;19.20;6.45;;;;;;;;;;6338608;28;20047;-62
2023/10/24 08:21:56;;;;;;;19.15;5.40;;;;;;;;;;6340364;27;20093;-63
2023/10/24 08:24:59;;;;;;;18.75;8.40;;;;;;;;;;6336369;28;20565;-63
2023/10/24 08:28:01;;;;;;;18.77;6.85;;;;;;;;;;6337453;28;20356;-63
2023/10/24 08:31:03;;;;;;;13.82;4.78;;;;;;;;;;6336706;28;20059;-64
2023/10/24 08:34:06;;;;;;;17.92;5.75;;;;;;;;;;6336489;28;20545;-63
2023/10/24 08:37:09;;;;;;;16.35;5.47;;;;;;;;;;6326964;28;20036;-64
2023/10/24 08:40:11;;;;;;;16.85;4.78;;;;;;;;;;6330522;28;20047;-63
2023/10/24 08:43:15;;;;;;;11.70;5.15;;;;;;;;;;6338353;28;20590;-63
2023/10/24 08:46:17;;;;;;;15.85;4.03;;;;;;;;;;6321113;28;20036;-64
2023/10/24 08:49:19;;;;;;;18.67;6.03;;;;;;;;;;6319482;28;20426;-64
2023/10/24 08:52:22;;;;;;;12.20;4.63;;;;;;;;;;6335457;28;20052;-63
2023/10/24 08:55:32;;;;;;;14.73;4.60;;;;;;;;;;6329501;28;20072;-63
2023/10/24 08:58:37;;;;;;;15.05;4.65;;;;;;;;;;6332347;28;20074;-63
2023/10/24 09:01:40;;;;;;;13.07;4.55;;;;;;;;;;6332238;28;20137;-63
2023/10/24 09:04:43;;;;;;;13.52;4.57;;;;;;;;;;6337651;28;20044;-63
2023/10/24 09:07:45;;;;;;;13.18;4.47;;;;;;;;;;6302443;28;20050;-63
2023/10/24 09:10:47;;;;;;;22.55;3.95;;;;;;;;;;6336852;28;20082;-63
2023/10/24 09:13:49;;;;;;;15.38;6.60;;;;;;;;;;6336590;28;20955;-62
2023/10/24 09:17:05;;;;;;;14.68;4.78;;;;;;;;;;6307204;28;20174;-62
2023/10/24 09:20:08;;;;;;;13.68;3.72;;;;;;;;;;6329386;28;20078;-62
2023/10/24 09:23:11;;;;;;;17.73;6.40;;;;;;;;;;6333098;28;20059;-63
2023/10/24 09:26:13;;;;;;;12.85;3.55;;;;;;;;;;6323588;27;20185;-63
2023/10/24 09:29:17;;;;;;;12.38;5.32;;;;;;;;;;6339730;27;20054;-62
2023/10/24 09:32:20;;;;;;;13.27;5.40;;;;;;;;;;6324393;28;20043;-63
2023/10/24 09:35:22;;;;;;;18.92;4.45;;;;;;;;;;6332007;27;20051;-61
2023/10/24 09:38:24;;;;;;;11.38;3.58;;;;;;;;;;6333171;27;20134;-63
2023/10/24 09:41:27;;;;;;;20.00;7.10;;;;;;;;;;6332962;28;20070;-63
2023/10/24 09:44:29;;;;;;;15.32;3.83;;;;;;;;;;6334198;27;20040;-64
2023/10/24 09:47:32;;;;;;;13.68;5.53;;;;;;;;;;6332446;27;20711;-63
2023/10/24 09:50:37;;;;;;;15.15;4.30;;;;;;;;;;6331884;28;20057;-63
2023/10/24 09:53:41;;;;;;;13.60;6.18;;;;;;;;;;6317111;28;20139;-62
2023/10/24 09:56:43;;;;;;;14.82;4.43;;;;;;;;;;6332332;27;20050;-64
2023/10/24 09:59:59;;;;;;;16.50;3.85;;;;;;;;;;6319812;27;20051;-63
2023/10/24 10:03:03;;;;;;;10.70;4.88;;;;;;;;;;6335818;27;20039;-62
2023/10/24 10:06:08;;;;;;;20.05;4.05;;;;;;;;;;6325181;28;20131;-63
2023/10/24 10:09:12;;;;;;;17.20;4.45;;;;;;;;;;6334595;27;20036;-63
2023/10/24 10:12:17;;;;;;;16.27;4.22;;;;;;;;;;6316805;28;20044;-63
2023/10/24 10:15:25;;;;;;;21.13;9.68;;;;;;;;;;6332193;27;20603;-63
2023/10/24 10:18:47;;;;;;;19.27;4.78;;;;;;;;;;6330784;28;20134;-63
2023/10/24 10:22:10;;;;;;;12.48;5.38;;;;;;;;;;6332820;28;20419;-64
2023/10/24 10:25:30;;;;;;;16.08;3.40;;;;;;;;;;6326987;28;20541;-63
2023/10/24 10:28:51;;;;;;;16.05;4.22;;;;;;;;;;6332748;28;20040;-64
2023/10/24 10:32:18;;;;;;;14.43;3.50;;;;;;;;;;6327143;28;20545;-64
2023/10/24 10:36:02;;;;;;;15.18;5.55;;;;;;;;;;6325036;28;20044;-64
2023/10/24 10:39:09;;;;;;;15.93;4.20;;;;;;;;;;6320334;28;20430;-64
2023/10/24 10:42:50;;;;;;;19.33;5.63;;;;;;;;;;6320223;28;20161;-64
2023/10/24 10:46:19;;;;;;;14.35;3.75;;;;;;;;;;6329219;28;20051;-65
2023/10/24 10:49:21;;;;;;;;;;;;;;;;;;6317928;28;20084;-64
2023/10/24 10:52:46;;;;;;;15.25;5.78;;;;;;;;;;6326181;28;19956;-63
2023/10/24 10:56:18;;;;;;;11.93;4.15;;;;;;;;;;6324618;28;20044;-63
2023/10/24 10:59:50;;;;;;;13.70;3.22;;;;;;;;;;6316236;28;20075;-63
2023/10/24 11:03:13;;;;;;;11.20;3.47;;;;;;;;;;6307005;28;20104;-63
2023/10/24 11:06:16;;;;;;;;;;;;;;;;;;6326309;28;20403;-63
2023/10/24 11:09:19;;;;;;;;;;;;;;;;;;6326048;28;19920;-63
2023/10/24 11:12:20;;;;;;;8.95;2.90;;;;;;;;;;6336630;28;19928;-63
2023/10/24 11:15:23;;;;;;;8.85;2.65;;;;;;;;;;6339040;28;20055;-64
2023/10/24 11:18:26;;;;;;;15.43;4.53;;;;;;;;;;6338039;28;20048;-64
2023/10/24 11:21:28;;;;;;;10.02;2.13;;;;;;;;;;6333207;28;20039;-63
2023/10/24 11:24:30;;;;;;;11.50;4.07;;;;;;;;;;6331477;28;20078;-61
2023/10/24 11:27:32;;;;;;;14.18;3.97;;;;;;;;;;6335297;28;20036;-62
2023/10/24 11:30:34;;;;;;;13.07;2.90;;;;;;;;;;6335104;28;20761;-63
2023/10/24 11:33:36;;;;;;;14.55;3.90;;;;;;;;;;6335480;27;20051;-62
2023/10/24 11:36:43;;;;;;;17.08;3.17;;;;;;;;;;6335016;28;20046;-63
2023/10/24 11:39:45;;;;;;;9.63;3.67;;;;;;;;;;6331299;28;20050;-62
2023/10/24 11:42:46;;;;;;;13.70;2.25;;;;;;;;;;6330111;28;20096;-63
2023/10/24 11:45:49;;;;;;;12.63;2.83;;;;;;;;;;6333457;28;20047;-62
2023/10/24 11:48:51;;;;;;;16.35;3.42;;;;;;;;;;6335623;27;20039;-62
2023/10/24 11:51:53;;;;;;;21.30;2.78;;;;;;;;;;6328623;28;20047;-63
2023/10/24 11:54:55;;;;;;;13.23;2.95;;;;;;;;;;6331411;28;20048;-62
2023/10/24 11:58:01;;;;;;;15.88;5.50;;;;;;;;;;6332731;28;20052;-63
2023/10/24 12:01:03;;;;;;;9.57;3.20;;;;;;;;;;6330190;28;20051;-63
2023/10/24 12:04:05;;;;;;;16.50;2.50;;;;;;;;;;6332674;27;20048;-62
2023/10/24 12:07:08;;;;;;;13.07;4.35;;;;;;;;;;6323332;28;20509;-66
2023/10/24 12:10:10;;;;;;;13.10;2.53;;;;;;;;;;6328816;27;20176;-63
2023/10/24 12:13:12;;;;;;;11.18;2.67;;;;;;;;;;6320409;28;20088;-63
2023/10/24 12:16:14;;;;;;;14.00;2.25;;;;;;;;;;6326334;28;20051;-64
2023/10/24 12:19:17;;;;;;;10.60;3.50;;;;;;;;;;6336538;27;20056;-63
2023/10/24 12:22:19;;;;;;;8.30;2.60;;;;;;;;;;6338364;27;20050;-63
2023/10/24 12:25:21;;;;;;;9.02;1.77;;;;;;;;;;6333593;27;20100;-63
2023/10/24 12:28:23;;;;;;;11.02;2.55;;;;;;;;;;6333354;27;20051;-63
2023/10/24 12:31:25;;;;;;;10.07;3.13;;;;;;;;;;6339140;27;20047;-62
2023/10/24 12:34:27;;;;;;;9.52;2.40;;;;;;;;;;6335406;27;20055;-63
2023/10/24 12:37:29;;;;;;;11.05;3.20;;;;;;;;;;6335485;27;20620;-63
2023/10/24 12:40:31;;;;;;;8.77;2.35;;;;;;;;;;6335703;28;20047;-63
2023/10/24 12:43:33;;;;;;;9.40;2.42;;;;;;;;;;6332113;28;20159;-63
2023/10/24 12:46:35;;;;;;;16.50;2.83;;;;;;;;;;6312127;27;20054;-64
2023/10/24 12:49:37;;;;;;;8.65;2.88;;;;;;;;;;6330786;27;20050;-62
2023/10/24 12:52:40;;;;;;;12.80;2.20;;;;;;;;;;6337688;27;20044;-64
2023/10/24 12:55:42;;;;;;;11.88;3.22;;;;;;;;;;6318184;27;20067;-63
2023/10/24 12:58:45;;;;;;;9.98;5.10;;;;;;;;;;6331851;28;20076;-64
2023/10/24 13:01:53;;;;;;;10.85;4.13;;;;;;;;;;6332496;27;20042;-63
2023/10/24 13:04:55;;;;;;;17.95;3.88;;;;;;;;;;6337730;27;20762;-63
2023/10/24 13:07:58;;;;;;;13.52;3.05;;;;;;;;;;6328182;27;20035;-63
2023/10/24 13:11:01;;;;;;;16.83;3.10;;;;;;;;;;6327850;27;20683;-63
2023/10/24 13:14:03;;;;;;;14.77;3.00;;;;;;;;;;6331402;28;20046;-64
2023/10/24 13:17:05;;;;;;;13.38;4.85;;;;;;;;;;6335312;27;20062;-64
2023/10/24 13:20:16;;;;;;;11.40;4.90;;;;;;;;;;6329600;28;20095;-63
2023/10/24 13:23:18;;;;;;;14.85;4.68;;;;;;;;;;6336544;28;20100;-64
2023/10/24 13:26:21;;;;;;;16.25;3.00;;;;;;;;;;6332991;28;20044;-64
2023/10/24 13:29:23;;;;;;;9.07;4.15;;;;;;;;;;6334302;28;20062;-64
2023/10/24 13:32:25;;;;;;;9.25;1.92;;;;;;;;;;6328091;28;20148;-63
2023/10/24 13:35:27;;;;;;;14.57;4.07;;;;;;;;;;6330650;28;20051;-63
2023/10/24 13:38:32;;;;;;;14.25;3.38;;;;;;;;;;6328042;28;20131;-64
2023/10/24 13:41:35;;;;;;;12.82;2.45;;;;;;;;;;6295679;28;20146;-64
2023/10/24 13:44:37;;;;;;;18.65;3.42;;;;;;;;;;6325457;28;20043;-64
2023/10/24 13:47:39;;;;;;;8.40;2.28;;;;;;;;;;6333657;28;20056;-64
2023/10/24 13:50:42;;;;;;;11.40;2.72;;;;;;;;;;6321855;28;20104;-63
2023/10/24 13:53:44;;;;;;;10.57;2.95;;;;;;;;;;6332267;28;20040;-63
2023/10/24 13:56:46;;;;;;;15.50;2.85;;;;;;;;;;6334226;28;20578;-63
2023/10/24 13:59:47;;;;;;;11.15;2.42;;;;;;;;;;6334616;28;20040;-63
2023/10/24 14:02:49;;;;;;;9.95;2.03;;;;;;;;;;6331251;28;20060;-63
2023/10/24 14:05:52;;;;;;;12.85;2.85;;;;;;;;;;6330151;28;20065;-64
2023/10/24 14:08:54;;;;;;;14.90;5.05;;;;;;;;;;6334846;28;20044;-65
2023/10/24 14:11:56;;;;;;;13.45;4.90;;;;;;;;;;6329690;28;20682;-64
2023/10/24 14:14:58;;;;;;;10.85;3.00;;;;;;;;;;6331415;28;20422;-64
2023/10/24 14:18:00;;;;;;;13.68;4.32;;;;;;;;;;6329957;28;20607;-63
2023/10/24 14:21:03;;;;;;;10.20;2.65;;;;;;;;;;6330461;28;20519;-63
2023/10/24 14:24:05;;;;;;;52.28;20.83;;;;;;;;;;6331244;28;20047;-63
2023/10/24 14:27:07;;;;;;;25.25;6.65;;;;;;;;;;6319469;28;20036;-64
2023/10/24 14:30:10;;;;;;;18.65;5.32;;;;;;;;;;6329171;28;20052;-63
2023/10/24 14:33:13;;;;;;;30.05;5.65;;;;;;;;;;6315000;28;20047;-64
2023/10/24 14:36:15;;;;;;;31.05;12.93;;;;;;;;;;6327304;28;20813;-63
2023/10/24 14:39:17;;;;;;;16.80;3.13;;;;;;;;;;6322328;28;20414;-63
2023/10/24 14:42:20;;;;;;;18.90;5.68;;;;;;;;;;6331059;28;20051;-63
2023/10/24 14:45:22;;;;;;;12.55;4.38;;;;;;;;;;6336681;27;20442;-63
2023/10/24 14:48:24;;;;;;;13.48;4.00;;;;;;;;;;6336282;28;20051;-63
2023/10/24 14:51:26;;;;;;;20.75;5.05;;;;;;;;;;6336082;28;20123;-64
2023/10/24 14:54:28;;;;;;;26.33;14.60;;;;;;;;;;6333127;28;20047;-64
2023/10/24 14:57:31;;;;;;;19.73;8.90;;;;;;;;;;6338106;28;20467;-63
2023/10/24 15:00:33;;;;;;;26.75;9.68;;;;;;;;;;6339630;28;20039;-63
2023/10/24 15:03:39;;;;;;;24.95;10.48;;;;;;;;;;6339415;28;20499;-63
2023/10/24 15:06:41;;;;;;;16.02;4.82;;;;;;;;;;6338057;28;20058;-64
2023/10/24 15:09:44;;;;;;;17.50;4.00;;;;;;;;;;6339422;28;20087;-63
2023/10/24 15:12:46;;;;;;;16.85;4.30;;;;;;;;;;6327362;28;20058;-63
2023/10/24 15:15:48;;;;;;;54.60;7.78;;;;;;;;;;6339427;28;20134;-63
2023/10/24 15:18:52;;;;;;;24.15;5.18;;;;;;;;;;6321299;28;20086;-64
2023/10/24 15:21:54;;;;;;;25.27;6.95;;;;;;;;;;6340014;27;20051;-63
2023/10/24 15:24:56;;;;;;;20.75;10.55;;;;;;;;;;6340124;28;20059;-63
2023/10/24 15:27:59;;;;;;;19.83;6.60;;;;;;;;;;6336974;28;20050;-63
2023/10/24 15:31:03;;;;;;;14.60;5.18;;;;;;;;;;6339021;28;20491;-63
2023/10/24 15:34:05;;;;;;;16.45;5.28;;;;;;;;;;6328741;28;20089;-63
2023/10/24 15:37:07;;;;;;;25.25;4.82;;;;;;;;;;6333064;27;20052;-63
2023/10/24 15:40:09;;;;;;;17.17;5.78;;;;;;;;;;6336002;28;20047;-63
2023/10/24 15:43:11;;;;;;;10.10;4.80;;;;;;;;;;6330419;27;20059;-63
2023/10/24 15:46:16;;;;;;;15.88;3.42;;;;;;;;;;6340466;28;20040;-63
2023/10/24 15:49:18;;;;;;;17.55;4.20;;;;;;;;;;6335756;28;20046;-63
2023/10/24 15:52:20;;;;;;;18.92;4.95;;;;;;;;;;6338956;28;20051;-63
2023/10/24 15:55:23;;;;;;;19.77;6.10;;;;;;;;;;6322417;27;20077;-62
2023/10/24 15:58:29;;;;;;;15.20;4.70;;;;;;;;;;6323055;28;20047;-63
2023/10/24 16:01:31;;;;;;;16.75;6.13;;;;;;;;;;6338098;27;20419;-63
2023/10/24 16:04:33;;;;;;;17.25;4.25;;;;;;;;;;6336628;27;20161;-63
2023/10/24 16:07:35;;;;;;;23.88;8.38;;;;;;;;;;6338776;27;20625;-61
2023/10/24 16:10:38;;;;;;;18.17;4.22;;;;;;;;;;6343926;27;20305;-63
2023/10/24 16:13:40;;;;;;;12.65;3.13;;;;;;;;;;6347757;27;20047;-62
2023/10/24 16:16:43;;;;;;;12.38;3.25;;;;;;;;;;6330478;27;20570;-62
2023/10/24 16:19:45;;;;;;;18.08;3.38;;;;;;;;;;6330826;28;20115;-64
2023/10/24 16:22:48;;;;;;;8.07;3.20;;;;;;;;;;6338645;27;20490;-62
2023/10/24 16:25:50;;;;;;;13.95;2.67;;;;;;;;;;6332329;27;20047;-62
2023/10/24 16:28:52;;;;;;;20.73;5.22;;;;;;;;;;6332911;27;20118;-63
2023/10/24 16:31:54;;;;;;;19.17;6.10;;;;;;;;;;6334780;28;20058;-63
2023/10/24 16:34:58;;;;;;;12.43;3.05;;;;;;;;;;6324566;28;20055;-63
2023/10/24 16:38:00;;;;;;;12.07;2.95;;;;;;;;;;6326563;28;20044;-63
2023/10/24 16:41:03;;;;;;;17.20;2.88;;;;;;;;;;6324205;28;20506;-63
2023/10/24 16:44:07;;;;;;;16.55;2.80;;;;;;;;;;6334911;28;20040;-64
2023/10/24 16:47:10;;;;;;;16.98;4.28;;;;;;;;;;6331961;28;20143;-63
2023/10/24 16:50:12;;;;;;;16.40;3.78;;;;;;;;;;6335473;28;20064;-63
2023/10/24 16:53:14;;;;;;;14.13;3.40;;;;;;;;;;6338931;28;20048;-64
2023/10/24 16:56:16;;;;;;;15.82;2.72;;;;;;;;;;6335199;28;20047;-63
2023/10/24 16:59:18;;;;;;;15.00;2.70;;;;;;;;;;6337431;28;20087;-62
2023/10/24 17:02:21;;;;;;;12.60;3.03;;;;;;;;;;6335179;28;20933;-63
2023/10/24 17:05:23;;;;;;;12.40;2.55;;;;;;;;;;6333833;28;20047;-63
2023/10/24 17:08:26;;;;;;;13.60;3.47;;;;;;;;;;6336244;28;20043;-63
2023/10/24 17:11:28;;;;;;;11.60;4.07;;;;;;;;;;6333189;27;20050;-63
2023/10/24 17:14:30;;;;;;;11.45;4.30;;;;;;;;;;6328831;28;20044;-63
2023/10/24 17:17:32;;;;;;;14.90;5.20;;;;;;;;;;6333897;28;20044;-63
2023/10/24 17:20:34;;;;;;;18.45;5.68;;;;;;;;;;6318878;28;20523;-63
2023/10/24 17:23:36;;;;;;;14.07;6.40;;;;;;;;;;6333540;28;20071;-62
2023/10/24 17:26:38;;;;;;;16.63;4.07;;;;;;;;;;6320951;28;20040;-63
2023/10/24 17:29:41;;;;;;;17.90;5.30;;;;;;;;;;6322631;28;20047;-63
2023/10/24 17:32:44;;;;;;;12.88;4.50;;;;;;;;;;6333486;28;20035;-63
2023/10/24 17:35:49;;;;;;;18.23;5.30;;;;;;;;;;6332118;28;20166;-64
2023/10/24 17:38:51;;;;;;;11.55;4.93;;;;;;;;;;6330174;28;20040;-63
2023/10/24 17:41:53;;;;;;;15.70;6.30;;;;;;;;;;6321806;28;20382;-63
2023/10/24 17:44:55;;;;;;;16.80;5.55;;;;;;;;;;6324879;28;20055;-63
2023/10/24 17:47:57;;;;;;;13.30;3.83;;;;;;;;;;6326949;28;20051;-62
2023/10/24 17:51:07;;;;;;;13.93;4.70;;;;;;;;;;6317012;28;20044;-62
2023/10/24 17:54:09;;;;;;;23.20;6.57;;;;;;;;;;6325733;27;20099;-63
2023/10/24 17:57:11;;;;;;;16.50;7.03;;;;;;;;;;6324919;28;20553;-62
2023/10/24 18:00:13;;;;;;;14.00;7.00;;;;;;;;;;6334020;28;20048;-63
2023/10/24 18:03:15;;;;;;;12.48;6.00;;;;;;;;;;6326101;28;20055;-64
2023/10/24 18:06:17;;;;;;;12.35;4.28;;;;;;;;;;6319640;28;20510;-63